sensor_id;sensor_type;location;lat;lon;timestamp;P1;durP1;ratioP1;P2;durP2;ratioP2
82773;SDS011;72508;45.118;20.728;2024-03-23T00:56:03;40.25;;;19.08;;
82773;SDS011;72508;45.118;20.728;2024-03-23T01:06:08;34.35;;;15.88;;
82773;SDS011;72508;45.118;20.728;2024-03-23T01:16:11;32.20;;;16.23;;
82773;SDS011;72508;45.118;20.728;2024-03-23T01:26:13;38.38;;;16.88;;
82773;SDS011;72508;45.118;20.728;2024-03-23T01:36:18;35.25;;;15.32;;
82773;SDS011;72508;45.118;20.728;2024-03-23T01:46:22;47.40;;;18.23;;
82773;SDS011;72508;45.118;20.728;2024-03-23T01:56:24;48.03;;;19.83;;
82773;SDS011;72508;45.118;20.728;2024-03-23T02:06:26;41.78;;;21.65;;
82773;SDS011;72508;45.118;20.728;2024-03-23T02:16:28;46.75;;;22.90;;
82773;SDS011;72508;45.118;20.728;2024-03-23T02:26:30;47.83;;;23.20;;
82773;SDS011;72508;45.118;20.728;2024-03-23T02:36:32;49.55;;;23.45;;
82773;SDS011;72508;45.118;20.728;2024-03-23T02:46:34;46.90;;;22.92;;
82773;SDS011;72508;45.118;20.728;2024-03-23T02:56:36;48.75;;;24.33;;
82773;SDS011;72508;45.118;20.728;2024-03-23T03:06:38;46.15;;;21.77;;
82773;SDS011;72508;45.118;20.728;2024-03-23T03:16:40;41.80;;;21.15;;
82773;SDS011;72508;45.118;20.728;2024-03-23T03:26:41;43.22;;;20.88;;
82773;SDS011;72508;45.118;20.728;2024-03-23T03:36:43;35.10;;;17.95;;
82773;SDS011;72508;45.118;20.728;2024-03-23T03:46:45;35.90;;;16.92;;
82773;SDS011;72508;45.118;20.728;2024-03-23T03:56:47;32.83;;;15.18;;
82773;SDS011;72508;45.118;20.728;2024-03-23T04:06:49;35.42;;;17.42;;
82773;SDS011;72508;45.118;20.728;2024-03-23T04:16:51;33.83;;;17.67;;
82773;SDS011;72508;45.118;20.728;2024-03-23T04:26:52;37.10;;;15.77;;
82773;SDS011;72508;45.118;20.728;2024-03-23T04:36:54;29.95;;;14.82;;
82773;SDS011;72508;45.118;20.728;2024-03-23T04:46:57;31.10;;;13.82;;
82773;SDS011;72508;45.118;20.728;2024-03-23T04:57:01;27.35;;;14.25;;
82773;SDS011;72508;45.118;20.728;2024-03-23T05:07:03;27.92;;;13.13;;
82773;SDS011;72508;45.118;20.728;2024-03-23T05:17:09;26.88;;;13.30;;
82773;SDS011;72508;45.118;20.728;2024-03-23T05:27:11;26.52;;;12.07;;
82773;SDS011;72508;45.118;20.728;2024-03-23T05:37:13;30.45;;;12.43;;
82773;SDS011;72508;45.118;20.728;2024-03-23T05:47:14;24.67;;;13.32;;
82773;SDS011;72508;45.118;20.728;2024-03-23T05:57:17;22.45;;;10.63;;
82773;SDS011;72508;45.118;20.728;2024-03-23T06:07:20;22.60;;;11.38;;
82773;SDS011;72508;45.118;20.728;2024-03-23T06:17:22;25.88;;;13.30;;
82773;SDS011;72508;45.118;20.728;2024-03-23T06:27:23;19.05;;;10.43;;
82773;SDS011;72508;45.118;20.728;2024-03-23T06:37:25;23.17;;;9.98;;
82773;SDS011;72508;45.118;20.728;2024-03-23T06:47:27;17.67;;;9.13;;
82773;SDS011;72508;45.118;20.728;2024-03-23T06:57:29;21.50;;;9.45;;
82773;SDS011;72508;45.118;20.728;2024-03-23T07:07:31;21.23;;;9.60;;
82773;SDS011;72508;45.118;20.728;2024-03-23T07:17:36;21.67;;;10.25;;
82773;SDS011;72508;45.118;20.728;2024-03-23T07:27:52;19.90;;;9.73;;
82773;SDS011;72508;45.118;20.728;2024-03-23T07:37:54;20.13;;;9.13;;
82773;SDS011;72508;45.118;20.728;2024-03-23T07:47:56;19.55;;;8.48;;
82773;SDS011;72508;45.118;20.728;2024-03-23T07:57:58;14.60;;;8.00;;
82773;SDS011;72508;45.118;20.728;2024-03-23T08:08:00;17.05;;;7.50;;
82773;SDS011;72508;45.118;20.728;2024-03-23T08:18:02;18.17;;;8.48;;
82773;SDS011;72508;45.118;20.728;2024-03-23T08:28:03;15.23;;;11.52;;
82773;SDS011;72508;45.118;20.728;2024-03-23T08:38:06;15.82;;;8.40;;
82773;SDS011;72508;45.118;20.728;2024-03-23T08:48:07;17.02;;;10.80;;
82773;SDS011;72508;45.118;20.728;2024-03-23T08:58:10;12.13;;;7.65;;
82773;SDS011;72508;45.118;20.728;2024-03-23T09:08:13;14.35;;;10.45;;
82773;SDS011;72508;45.118;20.728;2024-03-23T09:18:15;10.82;;;6.22;;
82773;SDS011;72508;45.118;20.728;2024-03-23T09:28:17;15.13;;;8.50;;
82773;SDS011;72508;45.118;20.728;2024-03-23T09:38:18;10.15;;;5.88;;
82773;SDS011;72508;45.118;20.728;2024-03-23T09:48:20;10.85;;;6.40;;
82773;SDS011;72508;45.118;20.728;2024-03-23T09:58:23;11.15;;;6.43;;
82773;SDS011;72508;45.118;20.728;2024-03-23T10:08:25;16.25;;;12.02;;
82773;SDS011;72508;45.118;20.728;2024-03-23T10:18:27;12.00;;;5.88;;
82773;SDS011;72508;45.118;20.728;2024-03-23T10:28:29;7.85;;;5.28;;
82773;SDS011;72508;45.118;20.728;2024-03-23T10:38:31;9.13;;;4.15;;
82773;SDS011;72508;45.118;20.728;2024-03-23T10:48:34;13.50;;;9.15;;
82773;SDS011;72508;45.118;20.728;2024-03-23T10:58:40;9.43;;;6.72;;
82773;SDS011;72508;45.118;20.728;2024-03-23T11:08:44;9.90;;;4.80;;
82773;SDS011;72508;45.118;20.728;2024-03-23T11:18:47;4.88;;;3.78;;
82773;SDS011;72508;45.118;20.728;2024-03-23T11:28:48;7.75;;;5.13;;
82773;SDS011;72508;45.118;20.728;2024-03-23T11:38:50;9.25;;;4.22;;
82773;SDS011;72508;45.118;20.728;2024-03-23T11:48:55;7.20;;;4.00;;
82773;SDS011;72508;45.118;20.728;2024-03-23T11:58:57;8.68;;;4.47;;
82773;SDS011;72508;45.118;20.728;2024-03-23T12:09:05;5.65;;;3.25;;
82773;SDS011;72508;45.118;20.728;2024-03-23T12:19:08;7.10;;;3.47;;
82773;SDS011;72508;45.118;20.728;2024-03-23T12:29:10;10.38;;;3.33;;
82773;SDS011;72508;45.118;20.728;2024-03-23T12:39:11;5.22;;;2.63;;
82773;SDS011;72508;45.118;20.728;2024-03-23T12:49:13;3.90;;;3.05;;
82773;SDS011;72508;45.118;20.728;2024-03-23T12:59:15;2.20;;;1.88;;
82773;SDS011;72508;45.118;20.728;2024-03-23T13:09:17;3.05;;;2.40;;
82773;SDS011;72508;45.118;20.728;2024-03-23T13:19:19;4.57;;;1.77;;
82773;SDS011;72508;45.118;20.728;2024-03-23T13:29:22;5.53;;;5.03;;
82773;SDS011;72508;45.118;20.728;2024-03-23T13:39:24;8.40;;;3.78;;
82773;SDS011;72508;45.118;20.728;2024-03-23T13:49:28;5.57;;;2.42;;
82773;SDS011;72508;45.118;20.728;2024-03-23T13:59:31;3.50;;;2.50;;
82773;SDS011;72508;45.118;20.728;2024-03-23T14:09:33;5.53;;;3.10;;
82773;SDS011;72508;45.118;20.728;2024-03-23T14:19:35;4.95;;;2.67;;
82773;SDS011;72508;45.118;20.728;2024-03-23T14:29:36;36.53;;;13.73;;
82773;SDS011;72508;45.118;20.728;2024-03-23T14:39:38;6.55;;;3.47;;
82773;SDS011;72508;45.118;20.728;2024-03-23T14:49:43;5.13;;;2.55;;
82773;SDS011;72508;45.118;20.728;2024-03-23T14:59:48;6.32;;;2.75;;
82773;SDS011;72508;45.118;20.728;2024-03-23T15:09:49;5.25;;;2.92;;
82773;SDS011;72508;45.118;20.728;2024-03-23T15:19:51;4.00;;;2.63;;
82773;SDS011;72508;45.118;20.728;2024-03-23T15:29:55;6.38;;;3.25;;
82773;SDS011;72508;45.118;20.728;2024-03-23T15:39:58;4.18;;;2.35;;
82773;SDS011;72508;45.118;20.728;2024-03-23T15:50:00;8.32;;;2.33;;
82773;SDS011;72508;45.118;20.728;2024-03-23T16:00:05;16.95;;;6.20;;
82773;SDS011;72508;45.118;20.728;2024-03-23T16:10:14;9.48;;;4.45;;
82773;SDS011;72508;45.118;20.728;2024-03-23T16:20:16;13.68;;;4.50;;
82773;SDS011;72508;45.118;20.728;2024-03-23T16:30:18;19.08;;;7.50;;
82773;SDS011;72508;45.118;20.728;2024-03-23T16:40:19;18.50;;;10.63;;
82773;SDS011;72508;45.118;20.728;2024-03-23T16:50:21;46.33;;;20.58;;
82773;SDS011;72508;45.118;20.728;2024-03-23T17:00:23;28.65;;;15.43;;
82773;SDS011;72508;45.118;20.728;2024-03-23T17:10:25;35.03;;;19.25;;
82773;SDS011;72508;45.118;20.728;2024-03-23T17:20:27;75.15;;;33.50;;
82773;SDS011;72508;45.118;20.728;2024-03-23T17:30:29;93.72;;;44.22;;
82773;SDS011;72508;45.118;20.728;2024-03-23T17:40:30;111.47;;;52.58;;
82773;SDS011;72508;45.118;20.728;2024-03-23T17:50:33;99.93;;;41.00;;
82773;SDS011;72508;45.118;20.728;2024-03-23T18:00:34;70.65;;;27.92;;
82773;SDS011;72508;45.118;20.728;2024-03-23T18:10:36;64.72;;;26.50;;
82773;SDS011;72508;45.118;20.728;2024-03-23T18:20:38;49.47;;;23.92;;
82773;SDS011;72508;45.118;20.728;2024-03-23T18:30:39;51.25;;;21.73;;
82773;SDS011;72508;45.118;20.728;2024-03-23T18:40:45;39.28;;;19.70;;
82773;SDS011;72508;45.118;20.728;2024-03-23T18:50:47;16.73;;;10.52;;
82773;SDS011;72508;45.118;20.728;2024-03-23T19:00:54;16.08;;;9.85;;
82773;SDS011;72508;45.118;20.728;2024-03-23T19:10:58;47.55;;;17.85;;
82773;SDS011;72508;45.118;20.728;2024-03-23T19:21:01;20.67;;;8.45;;
82773;SDS011;72508;45.118;20.728;2024-03-23T19:31:02;16.00;;;7.90;;
82773;SDS011;72508;45.118;20.728;2024-03-23T19:41:04;9.02;;;5.95;;
82773;SDS011;72508;45.118;20.728;2024-03-23T19:51:06;18.48;;;8.35;;
82773;SDS011;72508;45.118;20.728;2024-03-23T20:01:15;17.17;;;7.75;;
82773;SDS011;72508;45.118;20.728;2024-03-23T20:11:17;13.57;;;6.68;;
82773;SDS011;72508;45.118;20.728;2024-03-23T20:21:19;32.92;;;14.13;;
82773;SDS011;72508;45.118;20.728;2024-03-23T20:31:20;9.23;;;5.03;;
82773;SDS011;72508;45.118;20.728;2024-03-23T20:41:22;18.23;;;11.32;;
82773;SDS011;72508;45.118;20.728;2024-03-23T20:51:25;16.10;;;11.85;;
82773;SDS011;72508;45.118;20.728;2024-03-23T21:01:27;37.13;;;19.92;;
82773;SDS011;72508;45.118;20.728;2024-03-23T21:11:33;23.20;;;12.27;;
82773;SDS011;72508;45.118;20.728;2024-03-23T21:21:35;21.80;;;11.30;;
82773;SDS011;72508;45.118;20.728;2024-03-23T21:31:37;30.70;;;15.50;;
82773;SDS011;72508;45.118;20.728;2024-03-23T21:41:38;20.95;;;10.15;;
82773;SDS011;72508;45.118;20.728;2024-03-23T21:51:40;19.15;;;9.18;;
82773;SDS011;72508;45.118;20.728;2024-03-23T22:01:41;31.60;;;14.73;;
82773;SDS011;72508;45.118;20.728;2024-03-23T22:11:43;22.77;;;10.93;;
82773;SDS011;72508;45.118;20.728;2024-03-23T22:21:45;18.40;;;11.02;;
82773;SDS011;72508;45.118;20.728;2024-03-23T22:31:47;18.23;;;10.48;;
82773;SDS011;72508;45.118;20.728;2024-03-23T22:41:48;17.77;;;10.02;;
82773;SDS011;72508;45.118;20.728;2024-03-23T22:51:50;13.38;;;4.10;;
82773;SDS011;72508;45.118;20.728;2024-03-23T23:01:52;9.77;;;2.13;;
82773;SDS011;72508;45.118;20.728;2024-03-23T23:11:54;7.03;;;1.08;;
82773;SDS011;72508;45.118;20.728;2024-03-23T23:21:57;7.32;;;0.90;;
82773;SDS011;72508;45.118;20.728;2024-03-23T23:31:58;5.20;;;1.05;;
82773;SDS011;72508;45.118;20.728;2024-03-23T23:42:00;3.78;;;0.68;;
82773;SDS011;72508;45.118;20.728;2024-03-23T23:52:02;2.83;;;1.50;;
